Time;durP1;ratioP1;P1;durP2;ratioP2;P2;SDS_P1;SDS_P2;PMS_P1;PMS_P2;Temp;Humidity;BMP_temperature;BMP_pressure;BME280_temperature;BME280_humidity;BME280_pressure;Samples;Min_cycle;Max_cycle;Signal;HPM_P1;HPM_P2
2023/01/28 00:01:34;;;;;;;13.80;8.43;;;5.50;99.90;;;;;;4969090;28;20027;-82
2023/01/28 00:04:00;;;;;;;12.68;8.13;;;5.50;99.90;;;;;;4967987;28;20026;-84
2023/01/28 00:06:26;;;;;;;14.25;7.90;;;5.40;99.90;;;;;;4970406;28;20616;-82
2023/01/28 00:08:51;;;;;;;12.57;8.60;;;5.40;99.90;;;;;;4969473;28;20203;-84
2023/01/28 00:11:17;;;;;;;14.40;8.18;;;5.40;99.90;;;;;;4972784;28;20029;-84
2023/01/28 00:13:43;;;;;;;11.95;8.18;;;5.40;99.90;;;;;;4965705;28;20026;-83
2023/01/28 00:16:09;;;;;;;13.20;8.40;;;5.40;99.90;;;;;;4972645;28;20092;-87
2023/01/28 00:18:37;;;;;;;12.30;7.88;;;5.50;99.90;;;;;;4971532;28;20026;-84
2023/01/28 00:21:08;;;;;;;16.85;7.40;;;5.50;99.90;;;;;;4970764;28;20121;-83
2023/01/28 00:23:36;;;;;;;12.38;8.05;;;5.50;99.90;;;;;;4970602;28;20576;-85
2023/01/28 00:26:05;;;;;;;12.02;7.18;;;5.60;99.90;;;;;;4971563;28;20027;-84
2023/01/28 00:28:34;;;;;;;11.23;7.55;;;5.60;99.90;;;;;;4971290;28;20121;-84
2023/01/28 00:31:26;;;;;;;10.65;7.53;;;5.60;99.90;;;;;;4974231;28;20027;-84
2023/01/28 00:33:53;;;;;;;13.43;7.88;;;5.60;99.90;;;;;;4987500;28;20491;-84
2023/01/28 00:36:22;;;;;;;12.85;7.50;;;5.70;99.90;;;;;;4969650;28;20435;-84
2023/01/28 00:38:53;;;;;;;11.10;7.18;;;5.60;99.90;;;;;;4973061;28;20119;-84
2023/01/28 00:41:24;;;;;;;10.95;7.38;;;5.60;99.90;;;;;;4978771;28;20151;-84
2023/01/28 00:43:51;;;;;;;12.20;7.72;;;5.60;99.90;;;;;;4972411;28;20030;-86
2023/01/28 00:46:17;;;;;;;8.65;6.53;;;5.60;99.90;;;;;;4969011;28;20018;-85
2023/01/28 00:48:44;;;;;;;9.63;6.95;;;5.60;99.90;;;;;;4971058;28;20683;-84
2023/01/28 00:51:12;;;;;;;11.18;7.47;;;5.60;99.90;;;;;;4972407;28;20109;-84
2023/01/28 00:53:38;;;;;;;11.88;7.60;;;5.60;99.90;;;;;;4973262;28;20401;-84
2023/01/28 00:56:08;;;;;;;11.98;8.15;;;5.60;99.90;;;;;;4974363;28;20051;-85
2023/01/28 00:58:33;;;;;;;12.00;7.68;;;5.60;99.90;;;;;;4976485;28;20297;-85
2023/01/28 01:01:10;;;;;;;8.27;6.80;;;5.60;99.90;;;;;;4975053;28;20035;-85
2023/01/28 01:03:36;;;;;;;13.05;8.48;;;5.60;99.90;;;;;;4978819;28;20026;-84
2023/01/28 01:06:02;;;;;;;15.00;8.70;;;5.60;99.90;;;;;;4966339;28;20503;-86
2023/01/28 01:08:33;;;;;;;13.50;9.20;;;5.50;99.90;;;;;;4980541;28;20039;-84
2023/01/28 01:11:03;;;;;;;19.00;9.65;;;5.50;99.90;;;;;;4968808;28;20026;-86
2023/01/28 01:13:29;;;;;;;15.60;9.38;;;5.40;99.90;;;;;;4987980;28;20517;-85
2023/01/28 01:16:02;;;;;;;15.15;9.13;;;5.40;99.90;;;;;;4996060;28;20050;-86
2023/01/28 01:18:28;;;;;;;15.00;9.30;;;5.40;99.90;;;;;;5005184;28;20129;-87
2023/01/28 01:20:57;;;;;;;13.55;9.10;;;5.30;99.90;;;;;;5009123;28;20029;-86
2023/01/28 01:23:25;;;;;;;15.98;9.00;;;5.30;99.90;;;;;;4997127;28;20022;-87
2023/01/28 01:25:53;;;;;;;13.20;9.52;;;5.40;99.90;;;;;;4996930;28;20069;-84
2023/01/28 01:31:10;;;;;;;15.02;10.20;;;5.30;99.90;;;;;;5080918;23;20042;-86
2023/01/28 01:33:36;;;;;;;13.65;9.05;;;5.20;99.90;;;;;;5008597;28;20042;-85
2023/01/28 01:36:01;;;;;;;18.90;10.73;;;5.10;99.90;;;;;;5001114;28;20025;-85
2023/01/28 01:38:28;;;;;;;15.23;10.10;;;5.10;99.90;;;;;;4997824;28;20076;-85
2023/01/28 01:40:58;;;;;;;15.98;9.80;;;5.10;99.90;;;;;;4992250;28;20044;-85
2023/01/28 01:43:25;;;;;;;16.75;9.82;;;5.10;99.90;;;;;;4999438;28;20030;-89
2023/01/28 01:46:00;;;;;;;15.20;9.10;;;5.00;99.90;;;;;;4997615;28;20137;-89
2023/01/28 01:48:34;;;;;;;19.92;10.25;;;5.00;99.90;;;;;;4998107;28;20061;-90
2023/01/28 01:51:08;;;;;;;17.60;9.90;;;5.00;99.90;;;;;;4998017;28;20026;-90
2023/01/28 01:53:38;;;;;;;20.77;10.60;;;4.90;99.90;;;;;;4999808;28;20474;-92
2023/01/28 01:56:07;;;;;;;17.13;10.13;;;4.90;99.90;;;;;;4995064;28;20029;-90
2023/01/28 01:58:38;;;;;;;17.20;10.70;;;4.80;99.90;;;;;;5017370;28;20102;-92
2023/01/28 02:01:05;;;;;;;21.27;10.13;;;4.80;99.90;;;;;;4998343;28;20018;-89
2023/01/28 02:03:39;;;;;;;15.73;10.00;;;4.80;99.90;;;;;;4996584;28;20018;-91
2023/01/28 02:06:08;;;;;;;17.45;10.82;;;4.80;99.90;;;;;;4989902;28;20186;-88
2023/01/28 02:08:33;;;;;;;18.95;9.98;;;4.80;99.90;;;;;;5000473;28;20069;-92
2023/01/28 02:11:05;;;;;;;16.02;10.43;;;4.80;99.90;;;;;;5000433;28;20058;-91
2023/01/28 02:13:38;;;;;;;15.23;9.65;;;4.80;99.90;;;;;;4997572;28;20037;-91
2023/01/28 02:16:04;;;;;;;;;;;4.80;99.90;;;;;;5001083;28;20022;-88
2023/01/28 02:18:32;;;;;;;15.25;9.52;;;4.80;99.90;;;;;;4997208;28;19905;-90
2023/01/28 02:21:29;;;;;;;15.05;9.48;;;4.80;99.90;;;;;;4998522;28;20042;-92
2023/01/28 02:24:00;;;;;;;14.57;9.63;;;4.80;99.90;;;;;;5013211;28;20058;-89
2023/01/28 02:26:41;;;;;;;17.45;10.25;;;4.90;99.90;;;;;;4997590;28;20026;-88
2023/01/28 02:29:21;;;;;;;16.05;9.45;;;4.80;99.90;;;;;;4996773;28;20037;-90
2023/01/28 02:31:51;;;;;;;16.05;9.85;;;4.80;99.90;;;;;;4995255;28;20022;-85
2023/01/28 02:34:40;;;;;;;14.63;9.60;;;4.70;99.90;;;;;;4989992;28;20554;-85
2023/01/28 02:37:24;;;;;;;16.55;10.60;;;4.70;99.90;;;;;;4991198;28;20054;-86
2023/01/28 02:40:22;;;;;;;18.85;9.68;;;4.70;99.90;;;;;;4988923;28;20030;-86
2023/01/28 02:42:47;;;;;;;16.25;10.60;;;4.70;99.90;;;;;;4992437;28;20393;-84
2023/01/28 02:47:56;;;;;;;16.48;9.63;;;4.70;99.90;;;;;;4995915;28;20021;-85
2023/01/28 02:48:18;;;;;;;14.82;9.40;;;4.70;99.90;;;;;;4993266;28;20402;-84
2023/01/28 02:51:08;;;;;;;20.15;9.57;;;4.60;99.90;;;;;;4993638;28;20081;-84
2023/01/28 02:53:44;;;;;;;17.60;9.90;;;4.70;99.90;;;;;;5008553;28;20410;-84
2023/01/28 02:56:23;;;;;;;17.35;10.02;;;4.80;99.90;;;;;;4994099;28;20084;-89
2023/01/28 02:59:29;;;;;;;16.40;10.23;;;4.80;99.90;;;;;;4996539;28;20042;-91
2023/01/28 03:01:57;;;;;;;15.07;9.80;;;4.80;99.90;;;;;;4999079;28;20428;-90
2023/01/28 03:04:25;;;;;;;15.97;9.63;;;4.80;99.90;;;;;;4996033;28;20662;-90
2023/01/28 03:06:56;;;;;;;16.10;9.68;;;4.90;99.90;;;;;;5000131;28;20089;-91
2023/01/28 03:09:25;;;;;;;18.75;10.02;;;4.90;99.90;;;;;;4996532;28;20588;-90
2023/01/28 03:38:17;;;;;;;15.13;9.98;;;4.90;99.90;;;;;;4995142;28;20033;-84
2023/01/28 03:40:56;;;;;;;17.38;10.02;;;4.90;99.90;;;;;;4990141;28;20323;-84
2023/01/28 03:43:22;;;;;;;16.23;9.70;;;4.90;99.90;;;;;;4992508;28;20104;-84
2023/01/28 03:45:51;;;;;;;19.08;10.35;;;4.90;99.90;;;;;;4995966;28;20056;-85
2023/01/28 03:48:22;;;;;;;17.38;10.85;;;5.00;99.90;;;;;;4990210;28;20802;-85
2023/01/28 03:50:48;;;;;;;18.98;10.60;;;4.90;99.90;;;;;;4992289;28;20331;-85
2023/01/28 03:53:15;;;;;;;17.88;11.00;;;4.90;99.90;;;;;;4990317;28;20017;-86
2023/01/28 03:55:41;;;;;;;16.73;9.93;;;4.90;99.90;;;;;;4993560;28;20555;-84
2023/01/28 03:58:10;;;;;;;19.75;11.82;;;4.90;99.90;;;;;;4992102;28;20030;-84
2023/01/28 04:00:36;;;;;;;18.40;11.35;;;5.00;99.90;;;;;;4989292;28;20015;-87
2023/01/28 04:03:03;;;;;;;18.30;10.77;;;4.80;99.90;;;;;;4995559;28;20026;-86
2023/01/28 04:05:31;;;;;;;20.52;11.30;;;4.80;99.90;;;;;;4994368;28;20022;-84
2023/01/28 04:07:59;;;;;;;19.48;10.88;;;4.80;99.90;;;;;;4996715;28;20129;-86
2023/01/28 04:10:24;;;;;;;23.75;11.65;;;4.80;99.90;;;;;;4997279;28;20041;-84
2023/01/28 04:12:53;;;;;;;21.05;12.30;;;4.80;99.90;;;;;;4994964;28;20026;-83
2023/01/28 04:15:18;;;;;;;24.00;12.68;;;4.80;99.90;;;;;;4992760;28;20609;-84
2023/01/28 04:17:48;;;;;;;21.73;11.95;;;4.80;99.90;;;;;;4991289;28;20281;-84
2023/01/28 04:20:14;;;;;;;20.42;11.60;;;4.70;99.90;;;;;;4992863;28;20049;-83
2023/01/28 04:22:40;;;;;;;21.63;12.45;;;4.70;99.90;;;;;;5001861;28;20117;-84
2023/01/28 04:25:06;;;;;;;21.27;12.90;;;4.70;99.90;;;;;;5002492;28;20624;-85
2023/01/28 04:27:31;;;;;;;26.48;13.43;;;4.70;99.90;;;;;;4999264;28;20518;-84
2023/01/28 04:29:57;;;;;;;22.00;12.65;;;4.70;99.90;;;;;;4995392;28;20034;-84
2023/01/28 04:32:22;;;;;;;21.67;12.13;;;4.70;99.90;;;;;;4995093;28;20030;-89
2023/01/28 04:34:48;;;;;;;25.38;12.63;;;4.70;99.90;;;;;;4998433;28;20034;-88
2023/01/28 04:37:14;;;;;;;22.63;12.90;;;4.70;99.90;;;;;;4996829;28;20105;-88
2023/01/28 04:39:39;;;;;;;22.85;12.55;;;4.70;99.90;;;;;;4998351;28;20026;-89
2023/01/28 04:42:05;;;;;;;24.80;13.43;;;4.70;99.90;;;;;;4993605;28;20030;-89
2023/01/28 04:44:30;;;;;;;26.70;12.65;;;4.70;99.90;;;;;;4998754;28;20037;-91
2023/01/28 04:46:56;;;;;;;22.27;12.55;;;4.60;99.90;;;;;;5089986;23;20142;-91
2023/01/28 04:49:21;;;;;;;25.55;13.77;;;4.60;99.90;;;;;;4965006;28;20533;-90
2023/01/28 04:51:47;;;;;;;25.13;13.43;;;4.60;99.90;;;;;;4966784;28;20025;-90
2023/01/28 04:54:13;;;;;;;25.35;12.77;;;4.60;99.90;;;;;;4962798;28;20027;-89
2023/01/28 04:56:38;;;;;;;23.98;13.43;;;4.50;99.90;;;;;;4967943;28;20067;-90
2023/01/28 04:59:04;;;;;;;27.17;14.38;;;4.50;99.90;;;;;;4963288;28;20066;-91
2023/01/28 05:01:29;;;;;;;24.17;13.10;;;4.50;99.90;;;;;;4967930;28;20286;-91
2023/01/28 05:03:55;;;;;;;25.00;13.23;;;4.50;99.90;;;;;;4966086;28;20111;-92
2023/01/28 05:06:21;;;;;;;22.80;13.65;;;4.60;99.90;;;;;;4978434;28;20061;-91
2023/01/28 05:08:46;;;;;;;22.90;13.02;;;4.60;99.90;;;;;;4965329;28;20042;-91
2023/01/28 05:11:13;;;;;;;24.23;12.57;;;4.50;99.90;;;;;;4965327;28;20566;-88
2023/01/28 05:13:38;;;;;;;25.50;13.80;;;4.50;99.90;;;;;;4961496;28;20026;-90
2023/01/28 05:16:05;;;;;;;23.40;13.30;;;4.40;99.90;;;;;;4965905;28;20174;-90
2023/01/28 05:18:31;;;;;;;24.77;13.73;;;4.50;99.90;;;;;;4963460;28;20058;-90
2023/01/28 05:20:57;;;;;;;25.48;13.23;;;4.50;99.90;;;;;;4962960;28;20065;-89
2023/01/28 05:23:23;;;;;;;25.60;12.93;;;4.40;99.90;;;;;;4962150;28;20042;-89
2023/01/28 05:25:51;;;;;;;26.02;13.93;;;4.40;99.90;;;;;;4963257;28;20056;-91
2023/01/28 05:28:16;;;;;;;25.73;13.52;;;4.40;99.90;;;;;;4959405;28;20138;-90
2023/01/28 05:30:42;;;;;;;23.67;13.27;;;4.40;99.90;;;;;;4961388;28;20038;-90
2023/01/28 05:33:08;;;;;;;25.05;13.57;;;4.40;99.90;;;;;;4962226;28;20023;-90
2023/01/28 05:35:35;;;;;;;26.20;14.48;;;4.40;99.90;;;;;;4961482;28;20050;-90
2023/01/28 05:38:00;;;;;;;24.77;12.70;;;4.30;99.90;;;;;;4960174;28;20034;-91
2023/01/28 05:40:26;;;;;;;25.58;12.93;;;4.20;99.90;;;;;;4963115;28;20026;-91
2023/01/28 05:42:52;;;;;;;25.50;13.88;;;4.10;99.90;;;;;;4962305;28;20077;-89
2023/01/28 05:45:17;;;;;;;24.02;12.52;;;4.10;99.90;;;;;;4959486;28;20027;-90
2023/01/28 05:47:43;;;;;;;19.25;11.77;;;4.00;99.90;;;;;;4960176;28;20278;-90
2023/01/28 05:50:11;;;;;;;26.08;13.10;;;4.00;99.90;;;;;;4966801;28;20015;-91
2023/01/28 05:52:37;;;;;;;22.52;12.50;;;4.00;99.90;;;;;;4963552;28;20055;-91
2023/01/28 05:55:03;;;;;;;20.63;12.52;;;4.00;99.90;;;;;;4960291;28;20243;-84
2023/01/28 05:57:31;;;;;;;21.95;12.63;;;4.00;99.90;;;;;;4962412;28;20035;-85
2023/01/28 05:59:56;;;;;;;20.33;11.82;;;4.00;99.90;;;;;;4973034;28;20035;-84
2023/01/28 06:02:22;;;;;;;26.45;12.40;;;4.00;99.90;;;;;;4960821;28;20019;-85
2023/01/28 06:04:48;;;;;;;19.92;12.05;;;4.00;99.90;;;;;;4963562;28;20473;-84
2023/01/28 06:07:14;;;;;;;20.90;12.27;;;4.00;99.90;;;;;;4963893;28;20039;-85
2023/01/28 06:09:40;;;;;;;19.67;11.55;;;4.00;99.90;;;;;;4964003;28;20083;-84
2023/01/28 06:12:06;;;;;;;19.90;12.55;;;4.00;99.90;;;;;;4959872;28;20034;-85
2023/01/28 06:14:32;;;;;;;20.85;11.73;;;4.00;99.90;;;;;;4962934;28;20026;-85
2023/01/28 06:16:57;;;;;;;20.35;11.73;;;4.00;99.90;;;;;;4969885;28;20463;-84
2023/01/28 06:19:25;;;;;;;20.70;11.18;;;3.90;99.90;;;;;;4960160;28;20019;-85
2023/01/28 06:21:51;;;;;;;19.13;11.70;;;3.90;99.90;;;;;;4965954;28;20035;-84
2023/01/28 06:24:16;;;;;;;20.77;12.00;;;3.90;99.90;;;;;;4963757;28;20033;-84
2023/01/28 06:26:42;;;;;;;19.25;12.05;;;3.90;99.90;;;;;;4971132;28;20192;-85
2023/01/28 06:29:10;;;;;;;20.63;11.85;;;3.90;99.90;;;;;;4961577;28;20019;-85
2023/01/28 06:31:38;;;;;;;21.27;11.32;;;3.90;99.90;;;;;;4972892;28;20019;-85
2023/01/28 06:34:04;;;;;;;18.35;11.43;;;3.90;99.90;;;;;;5137741;23;20042;-92
2023/01/28 06:36:29;;;;;;;21.85;11.88;;;3.80;99.90;;;;;;4982493;28;20026;-89
2023/01/28 06:38:57;;;;;;;19.42;11.93;;;3.80;99.90;;;;;;4986658;28;20544;-91
2023/01/28 06:41:25;;;;;;;20.42;11.80;;;3.70;99.90;;;;;;4977458;28;20027;-92
2023/01/28 06:43:51;;;;;;;21.15;11.90;;;3.80;99.90;;;;;;4978168;28;20034;-91
2023/01/28 06:46:17;;;;;;;21.05;12.10;;;3.80;99.90;;;;;;4977085;28;20070;-92
2023/01/28 06:48:42;;;;;;;19.27;11.75;;;3.70;99.90;;;;;;4975580;28;20034;-92
2023/01/28 06:51:08;;;;;;;20.35;11.95;;;3.70;99.90;;;;;;4979124;28;20141;-91
2023/01/28 06:53:33;;;;;;;21.23;12.00;;;3.70;99.90;;;;;;4976510;28;20415;-92
2023/01/28 06:56:01;;;;;;;19.23;11.65;;;3.70;99.90;;;;;;4975734;28;20077;-91
2023/01/28 06:58:27;;;;;;;19.27;11.27;;;3.70;99.90;;;;;;4977597;28;20081;-91
2023/01/28 07:00:53;;;;;;;20.90;12.25;;;3.70;99.90;;;;;;4983480;28;20643;-90
2023/01/28 07:03:19;;;;;;;20.00;11.93;;;3.80;99.90;;;;;;4978213;28;20053;-91
2023/01/28 07:05:44;;;;;;;20.73;12.18;;;3.80;99.90;;;;;;4979455;28;20277;-91
2023/01/28 07:08:17;;;;;;;20.13;11.52;;;3.80;99.90;;;;;;4976659;28;20116;-90
2023/01/28 07:10:43;;;;;;;;;;;3.80;99.90;;;;;;4979026;28;20447;-87
2023/01/28 07:13:09;;;;;;;21.55;11.70;;;3.80;99.90;;;;;;4995652;28;19933;-87
2023/01/28 07:15:35;;;;;;;21.13;11.88;;;3.90;99.90;;;;;;5139254;23;20038;-88
2023/01/28 07:18:01;;;;;;;23.65;13.15;;;3.80;99.90;;;;;;5021115;28;20407;-89
2023/01/28 07:20:28;;;;;;;19.95;12.80;;;3.70;99.90;;;;;;5045663;23;20057;-91
2023/01/28 07:22:54;;;;;;;26.85;14.55;;;3.70;99.90;;;;;;5021472;28;20026;-85
2023/01/28 07:25:22;;;;;;;20.77;12.00;;;3.80;99.90;;;;;;5016574;28;20030;-85
2023/01/28 07:27:50;;;;;;;26.30;12.98;;;3.80;99.90;;;;;;5016628;28;20026;-85
2023/01/28 07:30:17;;;;;;;22.52;12.57;;;3.80;99.90;;;;;;5019508;28;20038;-85
2023/01/28 07:32:43;;;;;;;22.17;11.88;;;3.80;99.90;;;;;;5009900;28;20027;-83
2023/01/28 07:35:10;;;;;;;25.00;12.70;;;3.80;99.90;;;;;;5002072;28;20493;-85
2023/01/28 07:37:35;;;;;;;21.85;12.15;;;3.80;99.90;;;;;;4993002;28;20103;-89
2023/01/28 07:40:03;;;;;;;22.00;12.10;;;3.80;99.90;;;;;;4997575;28;20041;-94
2023/01/28 07:42:29;;;;;;;23.48;12.80;;;3.80;99.90;;;;;;4996968;28;20037;-93
2023/01/28 07:44:55;;;;;;;24.45;13.18;;;3.70;99.90;;;;;;5000708;28;20022;-91
2023/01/28 07:47:20;;;;;;;21.00;11.32;;;3.70;99.90;;;;;;4988430;28;20030;-92
2023/01/28 07:49:51;;;;;;;28.45;14.05;;;3.70;99.90;;;;;;4999929;28;20058;-91
2023/01/28 07:52:16;;;;;;;25.25;13.15;;;3.60;99.90;;;;;;5110044;23;20042;-90
2023/01/28 07:54:44;;;;;;;23.77;13.02;;;3.60;99.90;;;;;;5001694;28;20067;-92
2023/01/28 07:57:10;;;;;;;23.83;13.30;;;3.60;99.90;;;;;;4999174;28;20022;-91
2023/01/28 07:59:38;;;;;;;24.65;13.77;;;3.70;99.90;;;;;;4995475;28;20105;-85
2023/01/28 08:02:03;;;;;;;30.35;13.75;;;3.70;99.90;;;;;;4993821;28;20029;-88
2023/01/28 08:04:29;;;;;;;25.90;14.10;;;3.70;99.90;;;;;;4998000;28;20114;-86
2023/01/28 08:06:55;;;;;;;26.52;14.57;;;3.70;99.90;;;;;;4990832;28;20492;-86
2023/01/28 08:09:21;;;;;;;31.40;14.35;;;3.70;99.90;;;;;;4999457;28;20030;-86
2023/01/28 08:11:47;;;;;;;28.83;13.48;;;3.80;99.90;;;;;;4998726;28;20057;-85
2023/01/28 08:14:12;;;;;;;24.30;13.52;;;3.80;99.90;;;;;;4995768;28;20029;-87
2023/01/28 08:16:40;;;;;;;27.45;14.20;;;3.90;99.90;;;;;;4997854;28;20486;-86
2023/01/28 08:19:06;;;;;;;29.30;14.75;;;3.90;99.90;;;;;;4996700;28;20050;-85
2023/01/28 08:21:31;;;;;;;26.67;14.23;;;3.90;99.90;;;;;;4995959;28;20060;-85
2023/01/28 08:24:00;;;;;;;24.02;13.27;;;3.90;99.90;;;;;;4997379;28;20587;-85
2023/01/28 08:26:25;;;;;;;22.75;12.35;;;4.00;99.90;;;;;;4997021;28;20041;-88
2023/01/28 08:28:51;;;;;;;24.08;13.63;;;3.90;99.90;;;;;;5007463;28;20354;-85
2023/01/28 08:31:16;;;;;;;24.67;13.30;;;4.00;99.90;;;;;;5000740;28;20022;-85
2023/01/28 08:33:44;;;;;;;24.55;13.23;;;3.90;99.90;;;;;;5006502;28;20026;-93
2023/01/28 08:36:12;;;;;;;22.38;12.77;;;3.90;99.90;;;;;;5001889;28;20371;-93
2023/01/28 08:38:38;;;;;;;22.73;12.80;;;4.00;99.90;;;;;;5138146;23;20058;-84
2023/01/28 08:41:04;;;;;;;23.45;13.27;;;4.00;99.90;;;;;;5001187;28;20028;-85
2023/01/28 08:46:06;;;;;;;25.45;14.10;;;4.00;99.90;;;;;;5077670;23;20807;-93
2023/01/28 08:48:32;;;;;;;23.13;12.95;;;4.00;99.90;;;;;;5163461;23;20048;-89
2023/01/28 08:50:58;;;;;;;25.52;13.15;;;4.00;99.90;;;;;;4983682;28;20415;-93
2023/01/28 08:53:24;;;;;;;23.38;13.73;;;4.00;99.90;;;;;;4995997;28;20023;-90
2023/01/28 08:55:50;;;;;;;22.88;14.02;;;4.00;99.90;;;;;;4999458;28;20106;-92
2023/01/28 08:58:17;;;;;;;22.50;12.68;;;4.00;99.90;;;;;;5004091;28;20073;-92
2023/01/28 09:00:45;;;;;;;23.02;13.57;;;4.00;99.90;;;;;;5002710;28;20015;-90
2023/01/28 09:03:10;;;;;;;24.80;13.15;;;3.90;99.90;;;;;;5073294;23;20079;-89
2023/01/28 09:05:36;;;;;;;22.95;13.75;;;3.90;99.90;;;;;;5165935;23;20058;-91
2023/01/28 09:08:07;;;;;;;24.08;13.63;;;3.90;99.90;;;;;;4977095;28;20052;-90
2023/01/28 09:10:33;;;;;;;24.60;13.73;;;3.90;99.90;;;;;;4975523;28;20055;-92
2023/01/28 09:13:06;;;;;;;25.70;15.07;;;4.00;99.90;;;;;;4973552;28;20023;-92
2023/01/28 09:15:33;;;;;;;26.42;14.90;;;4.00;99.90;;;;;;4972971;28;20027;-92
2023/01/28 09:17:58;;;;;;;31.13;17.00;;;3.90;99.90;;;;;;4968225;28;20061;-90
2023/01/28 09:20:25;;;;;;;33.38;16.20;;;3.80;99.90;;;;;;4965044;28;20019;-92
2023/01/28 09:22:50;;;;;;;36.63;17.50;;;3.90;99.90;;;;;;4966638;28;20030;-92
2023/01/28 09:25:16;;;;;;;32.72;16.88;;;4.00;99.90;;;;;;4961472;28;20026;-91
2023/01/28 09:27:41;;;;;;;35.65;17.50;;;4.00;99.90;;;;;;5101218;23;20472;-84
2023/01/28 09:30:09;;;;;;;33.03;17.88;;;4.00;99.90;;;;;;4962190;28;20118;-84
2023/01/28 09:32:37;;;;;;;34.53;16.52;;;4.10;99.90;;;;;;4954400;28;20033;-84
2023/01/28 09:35:05;;;;;;;31.50;17.25;;;4.10;99.90;;;;;;4963982;28;20074;-92
2023/01/28 09:37:31;;;;;;;34.88;17.17;;;4.10;99.90;;;;;;4965715;28;20026;-89
2023/01/28 09:39:56;;;;;;;37.60;17.13;;;4.20;99.90;;;;;;4958769;28;20175;-90
2023/01/28 09:42:39;;;;;;;30.88;17.13;;;4.30;99.90;;;;;;4965481;28;20128;-89
2023/01/28 09:51:54;;;;;;;31.70;16.13;;;4.60;99.90;;;;;;4955803;28;20150;-93
2023/01/28 09:54:33;;;;;;;28.67;15.77;;;4.70;99.90;;;;;;4958184;28;20030;-91
2023/01/28 09:57:30;;;;;;;30.08;16.70;;;4.70;99.90;;;;;;4964085;28;20130;-92
2023/01/28 09:59:56;;;;;;;72.78;28.98;;;4.70;99.90;;;;;;4962560;28;20099;-90
2023/01/28 10:02:56;;;;;;;266.63;90.13;;;4.80;99.90;;;;;;4973807;28;20057;-93
2023/01/28 10:05:55;;;;;;;26.17;15.35;;;4.80;99.90;;;;;;4964616;28;20125;-90
2023/01/28 10:08:36;;;;;;;29.17;15.57;;;4.80;99.90;;;;;;4959026;28;20030;-91
2023/01/28 10:11:37;;;;;;;29.30;16.55;;;4.80;99.90;;;;;;4983089;28;20102;-91
2023/01/28 10:14:44;;;;;;;26.30;14.98;;;4.60;99.90;;;;;;4976713;28;20110;-93
2023/01/28 10:17:21;;;;;;;27.83;15.43;;;4.60;99.90;;;;;;4955205;28;20133;-87
2023/01/28 10:19:52;;;;;;;30.27;15.23;;;4.50;99.90;;;;;;4954530;28;20067;-87
2023/01/28 10:22:27;;;;;;;69.45;27.73;;;4.50;99.90;;;;;;4969442;28;20027;-89
2023/01/28 10:25:05;;;;;;;29.92;16.73;;;4.50;99.90;;;;;;4953698;28;20027;-85
2023/01/28 10:27:31;;;;;;;29.02;15.10;;;4.50;99.90;;;;;;4969041;28;20133;-87
2023/01/28 10:29:59;;;;;;;26.40;14.38;;;4.30;99.90;;;;;;4961961;28;20113;-86
2023/01/28 10:32:34;;;;;;;30.15;15.45;;;4.30;99.90;;;;;;4962751;28;20031;-85
2023/01/28 10:35:02;;;;;;;30.05;14.70;;;4.30;99.90;;;;;;4974184;28;20058;-89
2023/01/28 10:37:32;;;;;;;29.02;14.90;;;4.30;99.90;;;;;;4974392;28;20035;-92
2023/01/28 10:39:59;;;;;;;28.48;15.40;;;4.30;99.90;;;;;;4972972;28;20478;-85
2023/01/28 10:42:39;;;;;;;27.25;14.75;;;4.40;99.90;;;;;;4956175;28;20510;-92
2023/01/28 10:45:19;;;;;;;24.75;14.15;;;4.30;99.90;;;;;;4960991;28;20027;-92
2023/01/28 10:48:33;;;;;;;26.90;14.27;;;4.50;99.90;;;;;;4962536;28;20083;-91
2023/01/28 10:51:04;;;;;;;41.65;18.88;;;4.50;99.90;;;;;;4900715;29;20028;-85
2023/01/28 10:53:37;;;;;;;31.15;15.00;;;4.50;99.90;;;;;;4965275;28;20024;-85
2023/01/28 10:56:09;;;;;;;30.15;14.18;;;4.50;99.90;;;;;;4959864;28;20035;-84
2023/01/28 10:58:46;;;;;;;24.77;13.88;;;4.50;99.90;;;;;;4962773;28;20034;-92
2023/01/28 11:01:14;;;;;;;24.08;13.32;;;4.50;99.90;;;;;;4970103;28;20392;-93
2023/01/28 11:03:54;;;;;;;24.98;14.40;;;4.40;99.90;;;;;;4962066;28;20034;-92
2023/01/28 11:06:26;;;;;;;26.48;14.00;;;4.50;99.90;;;;;;4950280;28;20068;-87
2023/01/28 11:08:52;;;;;;;24.07;14.13;;;4.50;99.90;;;;;;4946626;28;20035;-86
2023/01/28 11:11:28;;;;;;;32.55;15.57;;;4.60;99.90;;;;;;4954821;28;20710;-84
2023/01/28 11:13:57;;;;;;;25.58;14.02;;;4.60;99.90;;;;;;4959357;28;22089;-86
2023/01/28 11:16:25;;;;;;;25.02;14.18;;;4.60;99.90;;;;;;4958636;28;20466;-84
2023/01/28 11:19:01;;;;;;;26.05;14.95;;;4.60;99.90;;;;;;4956267;28;20027;-85
2023/01/28 11:21:30;;;;;;;27.67;15.45;;;4.60;99.90;;;;;;4952265;28;20023;-83
2023/01/28 11:24:01;;;;;;;26.88;14.30;;;4.70;99.90;;;;;;4951920;28;20027;-85
2023/01/28 11:26:33;;;;;;;27.30;14.73;;;4.80;99.90;;;;;;4955247;28;20082;-84
2023/01/28 11:29:02;;;;;;;25.88;14.60;;;4.90;99.90;;;;;;4959942;28;20046;-91
2023/01/28 11:31:28;;;;;;;27.50;14.15;;;5.00;99.90;;;;;;4961512;28;20031;-91
2023/01/28 11:34:00;;;;;;;23.38;14.02;;;5.00;99.90;;;;;;4961468;28;20011;-94
2023/01/28 11:36:28;;;;;;;24.10;13.88;;;5.10;99.90;;;;;;4953739;28;20030;-94
2023/01/28 11:38:56;;;;;;;21.48;12.57;;;5.10;99.90;;;;;;4970626;28;20034;-84
2023/01/28 11:41:25;;;;;;;733.88;265.58;;;5.20;99.90;;;;;;4944650;28;20154;-85
2023/01/28 11:43:54;;;;;;;30.80;17.13;;;5.20;99.90;;;;;;4951904;28;20022;-85
2023/01/28 11:46:22;;;;;;;24.77;14.05;;;5.20;99.90;;;;;;4961037;28;20582;-86
2023/01/28 11:49:16;;;;;;;25.10;14.75;;;5.20;99.90;;;;;;4965098;28;20387;-88
2023/01/28 11:52:14;;;;;;;27.92;13.60;;;5.30;99.90;;;;;;4966996;28;20023;-89
2023/01/28 11:54:45;;;;;;;22.67;13.55;;;5.30;99.90;;;;;;4935919;28;20047;-88
2023/01/28 11:57:23;;;;;;;21.88;13.07;;;5.20;99.90;;;;;;4971841;28;20027;-93
2023/01/28 12:00:20;;;;;;;30.67;13.23;;;5.20;99.90;;;;;;4959173;28;20123;-95
2023/01/28 12:02:57;;;;;;;22.35;13.43;;;5.30;99.90;;;;;;4988891;23;20050;-94
2023/01/28 12:05:36;;;;;;;24.80;13.90;;;5.50;99.90;;;;;;5006833;28;20074;-94
2023/01/28 12:08:07;;;;;;;23.30;13.50;;;5.70;99.90;;;;;;5004575;28;20048;-94
2023/01/28 12:11:04;;;;;;;19.52;12.93;;;5.90;99.90;;;;;;5000242;28;20037;-89
2023/01/28 12:13:42;;;;;;;26.48;13.43;;;6.40;99.90;;;;;;4993791;28;20030;-90
2023/01/28 12:16:32;;;;;;;19.83;13.07;;;6.80;99.90;;;;;;5003628;28;20034;-89
2023/01/28 12:19:11;;;;;;;21.02;13.25;;;7.10;99.90;;;;;;5001815;28;20034;-89
2023/01/28 12:21:49;;;;;;;20.15;12.80;;;7.20;99.90;;;;;;4997551;28;20038;-90
2023/01/28 12:24:43;;;;;;;23.10;14.00;;;7.00;99.90;;;;;;4996293;28;20093;-87
2023/01/28 12:27:39;;;;;;;22.65;13.73;;;7.00;99.90;;;;;;5013655;28;20117;-86
2023/01/28 12:30:26;;;;;;;44.38;21.05;;;7.10;99.90;;;;;;4998620;28;20394;-86
2023/01/28 12:33:43;;;;;;;24.77;14.10;;;7.20;99.90;;;;;;4993704;28;20505;-86
2023/01/28 12:36:20;;;;;;;22.30;14.05;;;7.20;99.90;;;;;;4958916;28;20037;-87
2023/01/28 12:39:00;;;;;;;21.10;13.02;;;7.30;99.90;;;;;;4992416;28;20025;-87
2023/01/28 12:41:42;;;;;;;23.13;13.23;;;7.20;99.90;;;;;;5003400;28;20425;-87
2023/01/28 12:44:25;;;;;;;21.90;13.43;;;7.10;99.90;;;;;;4998897;28;20041;-88
2023/01/28 12:46:59;;;;;;;22.45;13.60;;;7.00;99.90;;;;;;5004906;28;20497;-87
2023/01/28 12:49:34;;;;;;;20.25;12.90;;;6.80;99.90;;;;;;5003886;28;20520;-86
2023/01/28 12:52:15;;;;;;;21.30;13.73;;;6.90;99.90;;;;;;5004501;28;20014;-82
2023/01/28 12:55:10;;;;;;;22.23;12.88;;;7.10;99.90;;;;;;5006439;28;20422;-86
2023/01/28 12:57:38;;;;;;;22.27;13.30;;;6.90;99.90;;;;;;5018355;28;20069;-86
2023/01/28 13:00:26;;;;;;;22.75;14.25;;;6.90;99.90;;;;;;5001368;28;20029;-85
2023/01/28 13:03:18;;;;;;;23.92;13.45;;;6.80;99.90;;;;;;5021146;28;20132;-86
2023/01/28 13:05:52;;;;;;;23.02;13.65;;;6.70;99.90;;;;;;5005817;28;20057;-85
2023/01/28 13:08:23;;;;;;;23.13;13.90;;;6.40;99.90;;;;;;5003847;28;20021;-84
2023/01/28 13:10:52;;;;;;;23.33;14.32;;;6.20;99.90;;;;;;5009381;28;20092;-85
2023/01/28 13:13:18;;;;;;;143.27;52.45;;;6.10;99.90;;;;;;5003428;28;20063;-85
2023/01/28 13:15:44;;;;;;;24.35;14.77;;;6.20;99.90;;;;;;5021059;28;20025;-85
2023/01/28 13:18:39;;;;;;;22.70;13.90;;;6.80;99.90;;;;;;4996490;28;20030;-84
2023/01/28 13:21:13;;;;;;;25.67;15.07;;;7.60;99.90;;;;;;4996218;28;20034;-84
2023/01/28 13:23:45;;;;;;;24.95;14.13;;;8.10;99.90;;;;;;5004336;28;20657;-86
2023/01/28 13:26:17;;;;;;;23.02;13.75;;;8.70;99.90;;;;;;5004135;28;20029;-86
2023/01/28 13:28:43;;;;;;;25.50;14.63;;;9.30;99.90;;;;;;5005835;28;20030;-87
2023/01/28 13:31:17;;;;;;;22.10;14.70;;;9.90;98.30;;;;;;5014750;28;20100;-88
2023/01/28 13:33:48;;;;;;;23.33;15.02;;;10.40;97.20;;;;;;4994262;28;20614;-90
2023/01/28 13:36:42;;;;;;;22.33;14.15;;;10.80;95.70;;;;;;5025529;28;20109;-91